sensor_id;sensor_type;location;lat;lon;timestamp;P1;durP1;ratioP1;P2;durP2;ratioP2
47155;SDS011;32908;52.344;16.858;2023-06-10T00:02:22;9.70;;;6.30;;
47155;SDS011;32908;52.344;16.858;2023-06-10T00:04:50;15.10;;;6.00;;
47155;SDS011;32908;52.344;16.858;2023-06-10T00:07:18;7.30;;;5.60;;
47155;SDS011;32908;52.344;16.858;2023-06-10T00:09:46;11.50;;;6.00;;
47155;SDS011;32908;52.344;16.858;2023-06-10T00:12:14;9.00;;;5.70;;
47155;SDS011;32908;52.344;16.858;2023-06-10T00:14:44;7.20;;;5.90;;
47155;SDS011;32908;52.344;16.858;2023-06-10T00:17:12;8.60;;;5.70;;
47155;SDS011;32908;52.344;16.858;2023-06-10T00:19:41;7.50;;;5.70;;
47155;SDS011;32908;52.344;16.858;2023-06-10T00:22:10;8.90;;;6.20;;
47155;SDS011;32908;52.344;16.858;2023-06-10T00:24:38;8.10;;;6.00;;
47155;SDS011;32908;52.344;16.858;2023-06-10T00:27:06;7.60;;;5.80;;
47155;SDS011;32908;52.344;16.858;2023-06-10T00:29:34;11.20;;;6.60;;
47155;SDS011;32908;52.344;16.858;2023-06-10T00:32:03;9.40;;;5.70;;
47155;SDS011;32908;52.344;16.858;2023-06-10T00:34:31;8.00;;;5.90;;
47155;SDS011;32908;52.344;16.858;2023-06-10T00:36:59;7.90;;;6.40;;
47155;SDS011;32908;52.344;16.858;2023-06-10T00:39:27;8.10;;;6.10;;
47155;SDS011;32908;52.344;16.858;2023-06-10T00:41:55;10.40;;;5.90;;
47155;SDS011;32908;52.344;16.858;2023-06-10T00:44:23;6.50;;;5.90;;
47155;SDS011;32908;52.344;16.858;2023-06-10T00:46:51;8.10;;;6.00;;
47155;SDS011;32908;52.344;16.858;2023-06-10T00:49:21;9.80;;;6.80;;
47155;SDS011;32908;52.344;16.858;2023-06-10T00:51:49;7.80;;;6.80;;
47155;SDS011;32908;52.344;16.858;2023-06-10T00:54:18;7.80;;;6.80;;
47155;SDS011;32908;52.344;16.858;2023-06-10T00:56:46;10.80;;;7.30;;
47155;SDS011;32908;52.344;16.858;2023-06-10T00:59:14;9.20;;;6.90;;
47155;SDS011;32908;52.344;16.858;2023-06-10T01:01:42;13.60;;;7.40;;
47155;SDS011;32908;52.344;16.858;2023-06-10T01:04:13;9.10;;;7.00;;
47155;SDS011;32908;52.344;16.858;2023-06-10T01:06:46;10.00;;;6.90;;
47155;SDS011;32908;52.344;16.858;2023-06-10T01:09:20;9.10;;;7.20;;
47155;SDS011;32908;52.344;16.858;2023-06-10T01:11:52;14.10;;;7.00;;
47155;SDS011;32908;52.344;16.858;2023-06-10T01:14:24;9.80;;;7.10;;
47155;SDS011;32908;52.344;16.858;2023-06-10T01:16:53;10.50;;;7.00;;
47155;SDS011;32908;52.344;16.858;2023-06-10T01:19:21;8.50;;;6.40;;
47155;SDS011;32908;52.344;16.858;2023-06-10T01:21:50;8.80;;;6.90;;
47155;SDS011;32908;52.344;16.858;2023-06-10T01:24:21;11.90;;;7.50;;
47155;SDS011;32908;52.344;16.858;2023-06-10T01:26:49;10.50;;;6.90;;
47155;SDS011;32908;52.344;16.858;2023-06-10T01:29:19;9.90;;;6.50;;
47155;SDS011;32908;52.344;16.858;2023-06-10T01:31:49;9.80;;;7.70;;
47155;SDS011;32908;52.344;16.858;2023-06-10T01:34:21;9.60;;;6.80;;
47155;SDS011;32908;52.344;16.858;2023-06-10T01:36:50;10.90;;;7.30;;
47155;SDS011;32908;52.344;16.858;2023-06-10T01:39:20;12.80;;;7.40;;
47155;SDS011;32908;52.344;16.858;2023-06-10T01:41:51;10.80;;;7.10;;
47155;SDS011;32908;52.344;16.858;2023-06-10T01:44:19;9.80;;;7.00;;
47155;SDS011;32908;52.344;16.858;2023-06-10T01:46:47;10.30;;;6.80;;
47155;SDS011;32908;52.344;16.858;2023-06-10T01:49:16;11.80;;;7.10;;
47155;SDS011;32908;52.344;16.858;2023-06-10T01:51:44;9.50;;;6.70;;
47155;SDS011;32908;52.344;16.858;2023-06-10T01:54:11;9.50;;;7.20;;
47155;SDS011;32908;52.344;16.858;2023-06-10T01:56:39;12.10;;;7.40;;
47155;SDS011;32908;52.344;16.858;2023-06-10T01:59:07;15.40;;;7.60;;
47155;SDS011;32908;52.344;16.858;2023-06-10T02:01:35;11.50;;;7.00;;
47155;SDS011;32908;52.344;16.858;2023-06-10T02:04:03;12.20;;;7.00;;
47155;SDS011;32908;52.344;16.858;2023-06-10T02:06:31;11.50;;;6.60;;
47155;SDS011;32908;52.344;16.858;2023-06-10T02:09:00;9.50;;;6.90;;
47155;SDS011;32908;52.344;16.858;2023-06-10T02:11:28;10.10;;;6.70;;
47155;SDS011;32908;52.344;16.858;2023-06-10T02:13:56;11.20;;;6.90;;
47155;SDS011;32908;52.344;16.858;2023-06-10T02:16:24;9.10;;;6.90;;
47155;SDS011;32908;52.344;16.858;2023-06-10T02:18:53;11.80;;;7.40;;
47155;SDS011;32908;52.344;16.858;2023-06-10T02:21:21;8.40;;;6.80;;
47155;SDS011;32908;52.344;16.858;2023-06-10T02:23:49;11.80;;;7.70;;
47155;SDS011;32908;52.344;16.858;2023-06-10T02:26:17;12.00;;;7.70;;
47155;SDS011;32908;52.344;16.858;2023-06-10T02:28:46;10.20;;;7.00;;
47155;SDS011;32908;52.344;16.858;2023-06-10T02:31:14;11.90;;;7.40;;
47155;SDS011;32908;52.344;16.858;2023-06-10T02:33:44;12.40;;;7.20;;
47155;SDS011;32908;52.344;16.858;2023-06-10T02:36:12;9.90;;;7.30;;
47155;SDS011;32908;52.344;16.858;2023-06-10T02:38:41;9.90;;;7.00;;
47155;SDS011;32908;52.344;16.858;2023-06-10T02:41:09;12.00;;;7.60;;
47155;SDS011;32908;52.344;16.858;2023-06-10T02:43:37;9.90;;;6.40;;
47155;SDS011;32908;52.344;16.858;2023-06-10T02:46:05;10.60;;;7.00;;
47155;SDS011;32908;52.344;16.858;2023-06-10T02:48:34;9.70;;;6.90;;
47155;SDS011;32908;52.344;16.858;2023-06-10T02:51:08;12.10;;;7.20;;
47155;SDS011;32908;52.344;16.858;2023-06-10T02:53:36;11.30;;;7.10;;
47155;SDS011;32908;52.344;16.858;2023-06-10T02:56:04;12.00;;;6.70;;
47155;SDS011;32908;52.344;16.858;2023-06-10T02:58:32;8.60;;;7.20;;
47155;SDS011;32908;52.344;16.858;2023-06-10T03:01:00;11.00;;;7.50;;
47155;SDS011;32908;52.344;16.858;2023-06-10T03:03:29;9.30;;;7.40;;
47155;SDS011;32908;52.344;16.858;2023-06-10T03:05:59;14.10;;;7.20;;
47155;SDS011;32908;52.344;16.858;2023-06-10T03:08:27;12.60;;;7.00;;
47155;SDS011;32908;52.344;16.858;2023-06-10T03:10:56;12.90;;;7.40;;
47155;SDS011;32908;52.344;16.858;2023-06-10T03:13:24;11.90;;;6.90;;
47155;SDS011;32908;52.344;16.858;2023-06-10T03:15:52;10.40;;;6.40;;
47155;SDS011;32908;52.344;16.858;2023-06-10T03:18:20;15.80;;;7.20;;
47155;SDS011;32908;52.344;16.858;2023-06-10T03:20:49;7.50;;;6.50;;
47155;SDS011;32908;52.344;16.858;2023-06-10T03:23:18;11.90;;;7.00;;
47155;SDS011;32908;52.344;16.858;2023-06-10T03:25:46;9.80;;;6.30;;
47155;SDS011;32908;52.344;16.858;2023-06-10T03:28:13;10.30;;;6.70;;
47155;SDS011;32908;52.344;16.858;2023-06-10T03:30:41;9.10;;;6.60;;
47155;SDS011;32908;52.344;16.858;2023-06-10T03:33:09;10.10;;;6.90;;
47155;SDS011;32908;52.344;16.858;2023-06-10T03:35:37;10.10;;;6.50;;
47155;SDS011;32908;52.344;16.858;2023-06-10T03:38:05;14.20;;;6.90;;
47155;SDS011;32908;52.344;16.858;2023-06-10T03:40:33;16.60;;;6.70;;
47155;SDS011;32908;52.344;16.858;2023-06-10T03:43:01;11.50;;;6.80;;
47155;SDS011;32908;52.344;16.858;2023-06-10T03:45:29;10.00;;;6.10;;
47155;SDS011;32908;52.344;16.858;2023-06-10T03:47:58;13.00;;;6.50;;
47155;SDS011;32908;52.344;16.858;2023-06-10T03:50:26;16.80;;;6.70;;
47155;SDS011;32908;52.344;16.858;2023-06-10T03:52:54;10.10;;;6.00;;
47155;SDS011;32908;52.344;16.858;2023-06-10T03:55:23;9.90;;;7.00;;
47155;SDS011;32908;52.344;16.858;2023-06-10T03:57:50;8.80;;;7.00;;
47155;SDS011;32908;52.344;16.858;2023-06-10T04:00:19;8.50;;;6.10;;
47155;SDS011;32908;52.344;16.858;2023-06-10T04:02:48;13.50;;;6.90;;
47155;SDS011;32908;52.344;16.858;2023-06-10T04:05:18;8.90;;;6.30;;
47155;SDS011;32908;52.344;16.858;2023-06-10T04:07:48;10.20;;;6.10;;
47155;SDS011;32908;52.344;16.858;2023-06-10T04:10:16;13.20;;;6.30;;
47155;SDS011;32908;52.344;16.858;2023-06-10T04:12:44;9.90;;;6.20;;
47155;SDS011;32908;52.344;16.858;2023-06-10T04:15:12;8.40;;;5.90;;
47155;SDS011;32908;52.344;16.858;2023-06-10T04:17:40;12.80;;;6.50;;
47155;SDS011;32908;52.344;16.858;2023-06-10T04:20:09;6.30;;;5.60;;
47155;SDS011;32908;52.344;16.858;2023-06-10T04:22:37;8.20;;;5.70;;
47155;SDS011;32908;52.344;16.858;2023-06-10T04:25:06;9.50;;;6.00;;
47155;SDS011;32908;52.344;16.858;2023-06-10T04:27:35;8.10;;;5.90;;
47155;SDS011;32908;52.344;16.858;2023-06-10T04:30:03;9.30;;;6.10;;
47155;SDS011;32908;52.344;16.858;2023-06-10T04:32:33;8.30;;;6.00;;
47155;SDS011;32908;52.344;16.858;2023-06-10T04:35:00;10.50;;;5.80;;
47155;SDS011;32908;52.344;16.858;2023-06-10T04:37:28;8.40;;;5.50;;
47155;SDS011;32908;52.344;16.858;2023-06-10T04:39:56;13.40;;;6.00;;
47155;SDS011;32908;52.344;16.858;2023-06-10T04:42:25;7.90;;;5.80;;
47155;SDS011;32908;52.344;16.858;2023-06-10T04:44:53;8.70;;;5.60;;
47155;SDS011;32908;52.344;16.858;2023-06-10T04:47:21;9.20;;;5.90;;
47155;SDS011;32908;52.344;16.858;2023-06-10T04:49:49;9.90;;;5.60;;
47155;SDS011;32908;52.344;16.858;2023-06-10T04:52:17;11.10;;;6.10;;
47155;SDS011;32908;52.344;16.858;2023-06-10T04:54:46;9.60;;;5.70;;
47155;SDS011;32908;52.344;16.858;2023-06-10T04:57:14;11.10;;;5.80;;
47155;SDS011;32908;52.344;16.858;2023-06-10T04:59:43;8.70;;;5.20;;
47155;SDS011;32908;52.344;16.858;2023-06-10T05:02:10;8.00;;;5.50;;
47155;SDS011;32908;52.344;16.858;2023-06-10T05:04:38;10.40;;;5.40;;
47155;SDS011;32908;52.344;16.858;2023-06-10T05:07:06;12.20;;;5.60;;
47155;SDS011;32908;52.344;16.858;2023-06-10T05:09:34;8.30;;;5.50;;
47155;SDS011;32908;52.344;16.858;2023-06-10T05:12:02;12.50;;;5.80;;
47155;SDS011;32908;52.344;16.858;2023-06-10T05:14:31;9.50;;;5.90;;
47155;SDS011;32908;52.344;16.858;2023-06-10T05:16:59;10.00;;;5.10;;
47155;SDS011;32908;52.344;16.858;2023-06-10T05:19:27;16.90;;;6.20;;
47155;SDS011;32908;52.344;16.858;2023-06-10T05:21:55;12.40;;;6.00;;
47155;SDS011;32908;52.344;16.858;2023-06-10T05:24:23;10.00;;;5.70;;
47155;SDS011;32908;52.344;16.858;2023-06-10T05:26:51;11.70;;;5.80;;
47155;SDS011;32908;52.344;16.858;2023-06-10T05:29:19;8.20;;;6.00;;
47155;SDS011;32908;52.344;16.858;2023-06-10T05:31:47;8.60;;;5.00;;
47155;SDS011;32908;52.344;16.858;2023-06-10T05:34:15;7.60;;;5.60;;
47155;SDS011;32908;52.344;16.858;2023-06-10T05:36:43;7.40;;;5.30;;
47155;SDS011;32908;52.344;16.858;2023-06-10T05:39:11;10.70;;;4.90;;
47155;SDS011;32908;52.344;16.858;2023-06-10T05:41:39;9.70;;;5.40;;
47155;SDS011;32908;52.344;16.858;2023-06-10T05:44:06;8.80;;;5.10;;
47155;SDS011;32908;52.344;16.858;2023-06-10T05:46:34;11.40;;;5.10;;
47155;SDS011;32908;52.344;16.858;2023-06-10T05:49:02;8.70;;;5.10;;
47155;SDS011;32908;52.344;16.858;2023-06-10T05:51:30;10.80;;;5.50;;
47155;SDS011;32908;52.344;16.858;2023-06-10T05:53:58;14.50;;;5.70;;
47155;SDS011;32908;52.344;16.858;2023-06-10T05:56:26;14.50;;;5.70;;
47155;SDS011;32908;52.344;16.858;2023-06-10T05:58:54;9.20;;;5.20;;
47155;SDS011;32908;52.344;16.858;2023-06-10T06:01:23;8.10;;;5.60;;
47155;SDS011;32908;52.344;16.858;2023-06-10T06:03:50;8.50;;;4.80;;
47155;SDS011;32908;52.344;16.858;2023-06-10T06:06:18;14.60;;;6.10;;
47155;SDS011;32908;52.344;16.858;2023-06-10T06:08:47;14.00;;;5.00;;
47155;SDS011;32908;52.344;16.858;2023-06-10T06:11:14;6.70;;;4.80;;
47155;SDS011;32908;52.344;16.858;2023-06-10T06:13:43;9.60;;;4.70;;
47155;SDS011;32908;52.344;16.858;2023-06-10T06:16:11;6.70;;;5.10;;
47155;SDS011;32908;52.344;16.858;2023-06-10T06:18:39;8.80;;;5.20;;
47155;SDS011;32908;52.344;16.858;2023-06-10T06:21:07;7.70;;;4.90;;
47155;SDS011;32908;52.344;16.858;2023-06-10T06:23:35;9.60;;;5.40;;
47155;SDS011;32908;52.344;16.858;2023-06-10T06:26:02;9.40;;;5.10;;
47155;SDS011;32908;52.344;16.858;2023-06-10T06:28:30;10.20;;;4.70;;
47155;SDS011;32908;52.344;16.858;2023-06-10T06:30:58;10.90;;;4.70;;
47155;SDS011;32908;52.344;16.858;2023-06-10T06:33:26;12.70;;;4.70;;
47155;SDS011;32908;52.344;16.858;2023-06-10T06:35:55;8.90;;;4.80;;
47155;SDS011;32908;52.344;16.858;2023-06-10T06:38:23;13.10;;;4.50;;
47155;SDS011;32908;52.344;16.858;2023-06-10T06:40:51;10.30;;;4.60;;
47155;SDS011;32908;52.344;16.858;2023-06-10T06:43:18;10.40;;;5.30;;
47155;SDS011;32908;52.344;16.858;2023-06-10T06:45:46;6.00;;;4.50;;
47155;SDS011;32908;52.344;16.858;2023-06-10T06:48:14;8.60;;;4.70;;
47155;SDS011;32908;52.344;16.858;2023-06-10T06:50:42;9.60;;;4.50;;
47155;SDS011;32908;52.344;16.858;2023-06-10T06:53:10;8.60;;;4.20;;
47155;SDS011;32908;52.344;16.858;2023-06-10T06:55:38;6.00;;;4.60;;
47155;SDS011;32908;52.344;16.858;2023-06-10T06:58:06;8.40;;;4.20;;
47155;SDS011;32908;52.344;16.858;2023-06-10T07:00:34;10.30;;;4.70;;
47155;SDS011;32908;52.344;16.858;2023-06-10T07:03:02;6.90;;;4.80;;
47155;SDS011;32908;52.344;16.858;2023-06-10T07:05:30;8.70;;;4.70;;
47155;SDS011;32908;52.344;16.858;2023-06-10T07:07:58;7.90;;;4.90;;
47155;SDS011;32908;52.344;16.858;2023-06-10T07:10:26;9.20;;;4.70;;
47155;SDS011;32908;52.344;16.858;2023-06-10T07:12:55;7.80;;;4.50;;
47155;SDS011;32908;52.344;16.858;2023-06-10T07:15:23;8.60;;;4.50;;
47155;SDS011;32908;52.344;16.858;2023-06-10T07:17:51;9.10;;;5.00;;
47155;SDS011;32908;52.344;16.858;2023-06-10T07:20:19;6.30;;;5.10;;
47155;SDS011;32908;52.344;16.858;2023-06-10T07:22:47;7.40;;;4.20;;
47155;SDS011;32908;52.344;16.858;2023-06-10T07:25:15;8.70;;;4.50;;
47155;SDS011;32908;52.344;16.858;2023-06-10T07:27:43;9.50;;;4.90;;
47155;SDS011;32908;52.344;16.858;2023-06-10T07:30:12;7.80;;;4.80;;
47155;SDS011;32908;52.344;16.858;2023-06-10T07:32:40;11.20;;;4.70;;
47155;SDS011;32908;52.344;16.858;2023-06-10T07:35:09;8.20;;;4.30;;
47155;SDS011;32908;52.344;16.858;2023-06-10T07:37:37;7.30;;;4.50;;
47155;SDS011;32908;52.344;16.858;2023-06-10T07:40:06;11.00;;;4.90;;
47155;SDS011;32908;52.344;16.858;2023-06-10T07:42:35;12.80;;;4.90;;
47155;SDS011;32908;52.344;16.858;2023-06-10T07:45:03;11.10;;;4.20;;
47155;SDS011;32908;52.344;16.858;2023-06-10T07:47:33;8.20;;;4.80;;
47155;SDS011;32908;52.344;16.858;2023-06-10T07:50:01;6.00;;;4.70;;
47155;SDS011;32908;52.344;16.858;2023-06-10T07:52:30;10.50;;;4.60;;
47155;SDS011;32908;52.344;16.858;2023-06-10T07:54:58;6.40;;;4.70;;
47155;SDS011;32908;52.344;16.858;2023-06-10T07:57:26;11.70;;;4.60;;
47155;SDS011;32908;52.344;16.858;2023-06-10T07:59:54;6.80;;;4.70;;
47155;SDS011;32908;52.344;16.858;2023-06-10T08:02:24;8.60;;;4.50;;
47155;SDS011;32908;52.344;16.858;2023-06-10T08:04:51;8.40;;;4.60;;
47155;SDS011;32908;52.344;16.858;2023-06-10T08:07:19;5.90;;;4.00;;
47155;SDS011;32908;52.344;16.858;2023-06-10T08:09:48;9.60;;;4.80;;
47155;SDS011;32908;52.344;16.858;2023-06-10T08:12:16;9.70;;;4.10;;
47155;SDS011;32908;52.344;16.858;2023-06-10T08:14:44;7.40;;;4.20;;
47155;SDS011;32908;52.344;16.858;2023-06-10T08:17:12;8.80;;;4.30;;
47155;SDS011;32908;52.344;16.858;2023-06-10T08:19:40;8.90;;;4.70;;
47155;SDS011;32908;52.344;16.858;2023-06-10T08:22:08;6.90;;;4.30;;
47155;SDS011;32908;52.344;16.858;2023-06-10T08:24:37;7.50;;;4.60;;
47155;SDS011;32908;52.344;16.858;2023-06-10T08:27:05;9.60;;;4.00;;
47155;SDS011;32908;52.344;16.858;2023-06-10T08:29:33;6.90;;;3.90;;
47155;SDS011;32908;52.344;16.858;2023-06-10T08:32:01;8.70;;;4.40;;
47155;SDS011;32908;52.344;16.858;2023-06-10T08:34:29;8.90;;;4.30;;
47155;SDS011;32908;52.344;16.858;2023-06-10T08:37:00;8.60;;;4.50;;
47155;SDS011;32908;52.344;16.858;2023-06-10T08:39:27;10.00;;;4.20;;
47155;SDS011;32908;52.344;16.858;2023-06-10T08:42:03;7.90;;;4.00;;
47155;SDS011;32908;52.344;16.858;2023-06-10T08:44:38;9.00;;;4.00;;
47155;SDS011;32908;52.344;16.858;2023-06-10T08:47:08;6.90;;;4.10;;
47155;SDS011;32908;52.344;16.858;2023-06-10T08:49:41;6.90;;;4.20;;
47155;SDS011;32908;52.344;16.858;2023-06-10T08:52:10;8.90;;;3.80;;
47155;SDS011;32908;52.344;16.858;2023-06-10T08:54:42;7.00;;;4.20;;
47155;SDS011;32908;52.344;16.858;2023-06-10T08:57:13;9.20;;;4.10;;
47155;SDS011;32908;52.344;16.858;2023-06-10T08:59:41;9.50;;;4.50;;
47155;SDS011;32908;52.344;16.858;2023-06-10T09:02:09;6.20;;;4.00;;
47155;SDS011;32908;52.344;16.858;2023-06-10T09:04:37;14.10;;;4.20;;
47155;SDS011;32908;52.344;16.858;2023-06-10T09:07:06;7.00;;;4.00;;
47155;SDS011;32908;52.344;16.858;2023-06-10T09:09:34;8.10;;;3.70;;
47155;SDS011;32908;52.344;16.858;2023-06-10T09:12:02;8.40;;;3.70;;
47155;SDS011;32908;52.344;16.858;2023-06-10T09:14:32;6.40;;;3.40;;
47155;SDS011;32908;52.344;16.858;2023-06-10T09:17:00;10.30;;;3.80;;
47155;SDS011;32908;52.344;16.858;2023-06-10T09:19:29;7.80;;;3.60;;
47155;SDS011;32908;52.344;16.858;2023-06-10T09:21:57;8.00;;;3.30;;
47155;SDS011;32908;52.344;16.858;2023-06-10T09:24:25;8.00;;;3.70;;
47155;SDS011;32908;52.344;16.858;2023-06-10T09:27:02;7.90;;;3.40;;
47155;SDS011;32908;52.344;16.858;2023-06-10T09:29:31;7.20;;;3.40;;
47155;SDS011;32908;52.344;16.858;2023-06-10T09:31:59;6.00;;;3.20;;
47155;SDS011;32908;52.344;16.858;2023-06-10T09:34:28;4.00;;;3.00;;
47155;SDS011;32908;52.344;16.858;2023-06-10T09:36:56;7.60;;;3.50;;
47155;SDS011;32908;52.344;16.858;2023-06-10T09:39:24;8.80;;;3.40;;
47155;SDS011;32908;52.344;16.858;2023-06-10T09:41:52;9.60;;;3.60;;
47155;SDS011;32908;52.344;16.858;2023-06-10T09:44:20;6.10;;;3.40;;
47155;SDS011;32908;52.344;16.858;2023-06-10T09:46:48;6.30;;;4.00;;
47155;SDS011;32908;52.344;16.858;2023-06-10T09:49:17;11.50;;;3.60;;
47155;SDS011;32908;52.344;16.858;2023-06-10T09:51:51;6.80;;;3.50;;
47155;SDS011;32908;52.344;16.858;2023-06-10T09:54:20;8.00;;;4.20;;
47155;SDS011;32908;52.344;16.858;2023-06-10T09:56:48;9.90;;;3.90;;
47155;SDS011;32908;52.344;16.858;2023-06-10T09:59:19;6.00;;;3.30;;
47155;SDS011;32908;52.344;16.858;2023-06-10T10:01:56;5.90;;;3.90;;
47155;SDS011;32908;52.344;16.858;2023-06-10T10:04:24;5.50;;;3.30;;
47155;SDS011;32908;52.344;16.858;2023-06-10T10:06:52;10.50;;;3.50;;
47155;SDS011;32908;52.344;16.858;2023-06-10T10:09:20;5.90;;;3.50;;
47155;SDS011;32908;52.344;16.858;2023-06-10T10:11:48;7.10;;;3.00;;
47155;SDS011;32908;52.344;16.858;2023-06-10T10:14:16;4.70;;;3.30;;
47155;SDS011;32908;52.344;16.858;2023-06-10T10:16:44;4.90;;;3.30;;
47155;SDS011;32908;52.344;16.858;2023-06-10T10:19:13;7.10;;;3.80;;
47155;SDS011;32908;52.344;16.858;2023-06-10T10:21:47;5.30;;;3.30;;
47155;SDS011;32908;52.344;16.858;2023-06-10T10:24:20;4.50;;;3.30;;
47155;SDS011;32908;52.344;16.858;2023-06-10T10:26:50;9.10;;;3.70;;
47155;SDS011;32908;52.344;16.858;2023-06-10T10:29:20;6.40;;;3.90;;
47155;SDS011;32908;52.344;16.858;2023-06-10T10:31:51;6.90;;;3.30;;
47155;SDS011;32908;52.344;16.858;2023-06-10T10:34:21;8.70;;;3.10;;
47155;SDS011;32908;52.344;16.858;2023-06-10T10:36:52;8.50;;;3.50;;
47155;SDS011;32908;52.344;16.858;2023-06-10T10:39:20;7.60;;;3.50;;
47155;SDS011;32908;52.344;16.858;2023-06-10T10:41:48;9.50;;;3.90;;
47155;SDS011;32908;52.344;16.858;2023-06-10T10:44:17;8.20;;;4.00;;
47155;SDS011;32908;52.344;16.858;2023-06-10T10:46:48;4.10;;;3.50;;
47155;SDS011;32908;52.344;16.858;2023-06-10T10:49:17;8.80;;;3.40;;
47155;SDS011;32908;52.344;16.858;2023-06-10T10:51:55;9.00;;;4.30;;
47155;SDS011;32908;52.344;16.858;2023-06-10T10:54:28;5.60;;;3.40;;
47155;SDS011;32908;52.344;16.858;2023-06-10T10:57:10;4.90;;;3.10;;
47155;SDS011;32908;52.344;16.858;2023-06-10T10:59:57;4.90;;;3.30;;
47155;SDS011;32908;52.344;16.858;2023-06-10T11:02:34;5.80;;;3.50;;
47155;SDS011;32908;52.344;16.858;2023-06-10T11:05:07;7.30;;;3.40;;
47155;SDS011;32908;52.344;16.858;2023-06-10T11:07:36;3.90;;;3.40;;
47155;SDS011;32908;52.344;16.858;2023-06-10T11:10:06;8.40;;;3.90;;
47155;SDS011;32908;52.344;16.858;2023-06-10T11:12:42;5.40;;;3.80;;
47155;SDS011;32908;52.344;16.858;2023-06-10T11:15:18;8.30;;;3.50;;
47155;SDS011;32908;52.344;16.858;2023-06-10T11:18:06;6.80;;;3.70;;
47155;SDS011;32908;52.344;16.858;2023-06-10T11:23:40;6.70;;;3.20;;
47155;SDS011;32908;52.344;16.858;2023-06-10T11:26:13;4.70;;;3.50;;
47155;SDS011;32908;52.344;16.858;2023-06-10T11:28:43;4.80;;;3.40;;
47155;SDS011;32908;52.344;16.858;2023-06-10T11:31:29;3.30;;;3.00;;
47155;SDS011;32908;52.344;16.858;2023-06-10T11:33:59;5.10;;;3.30;;
47155;SDS011;32908;52.344;16.858;2023-06-10T11:36:28;5.90;;;3.50;;
47155;SDS011;32908;52.344;16.858;2023-06-10T11:38:56;3.80;;;3.30;;
47155;SDS011;32908;52.344;16.858;2023-06-10T11:41:25;10.60;;;3.90;;
47155;SDS011;32908;52.344;16.858;2023-06-10T11:43:53;10.30;;;4.00;;
47155;SDS011;32908;52.344;16.858;2023-06-10T11:46:23;6.70;;;3.90;;
47155;SDS011;32908;52.344;16.858;2023-06-10T11:48:54;8.10;;;3.80;;
47155;SDS011;32908;52.344;16.858;2023-06-10T11:51:23;6.70;;;3.40;;
47155;SDS011;32908;52.344;16.858;2023-06-10T11:53:53;4.30;;;3.40;;
47155;SDS011;32908;52.344;16.858;2023-06-10T11:56:21;7.80;;;3.70;;
47155;SDS011;32908;52.344;16.858;2023-06-10T11:58:52;7.00;;;3.50;;
47155;SDS011;32908;52.344;16.858;2023-06-10T12:01:21;5.90;;;3.50;;
47155;SDS011;32908;52.344;16.858;2023-06-10T12:03:56;7.70;;;3.60;;
47155;SDS011;32908;52.344;16.858;2023-06-10T12:06:25;4.10;;;3.60;;
47155;SDS011;32908;52.344;16.858;2023-06-10T12:08:54;4.70;;;3.80;;
47155;SDS011;32908;52.344;16.858;2023-06-10T12:11:23;6.20;;;3.70;;
47155;SDS011;32908;52.344;16.858;2023-06-10T12:13:50;5.80;;;3.70;;
47155;SDS011;32908;52.344;16.858;2023-06-10T12:16:18;7.50;;;4.00;;
47155;SDS011;32908;52.344;16.858;2023-06-10T12:18:46;5.30;;;3.20;;
47155;SDS011;32908;52.344;16.858;2023-06-10T12:21:16;7.70;;;3.70;;
47155;SDS011;32908;52.344;16.858;2023-06-10T12:26:36;5.80;;;3.60;;
47155;SDS011;32908;52.344;16.858;2023-06-10T12:29:21;4.10;;;3.70;;
47155;SDS011;32908;52.344;16.858;2023-06-10T12:31:57;6.50;;;4.40;;
47155;SDS011;32908;52.344;16.858;2023-06-10T12:34:30;8.30;;;4.00;;
47155;SDS011;32908;52.344;16.858;2023-06-10T12:36:59;9.40;;;3.50;;
47155;SDS011;32908;52.344;16.858;2023-06-10T12:39:27;6.20;;;3.20;;
47155;SDS011;32908;52.344;16.858;2023-06-10T12:41:55;9.20;;;3.30;;
47155;SDS011;32908;52.344;16.858;2023-06-10T12:44:30;14.10;;;3.70;;
47155;SDS011;32908;52.344;16.858;2023-06-10T12:46:59;7.50;;;3.20;;
47155;SDS011;32908;52.344;16.858;2023-06-10T12:49:27;9.80;;;3.70;;
47155;SDS011;32908;52.344;16.858;2023-06-10T12:51:56;7.00;;;3.70;;
47155;SDS011;32908;52.344;16.858;2023-06-10T12:54:24;6.20;;;3.50;;
47155;SDS011;32908;52.344;16.858;2023-06-10T12:56:52;5.50;;;3.30;;
47155;SDS011;32908;52.344;16.858;2023-06-10T12:59:20;7.80;;;3.30;;
47155;SDS011;32908;52.344;16.858;2023-06-10T13:01:50;8.20;;;3.90;;
47155;SDS011;32908;52.344;16.858;2023-06-10T13:04:18;8.00;;;3.80;;
47155;SDS011;32908;52.344;16.858;2023-06-10T13:06:46;5.70;;;3.30;;
47155;SDS011;32908;52.344;16.858;2023-06-10T13:09:15;5.20;;;3.60;;
47155;SDS011;32908;52.344;16.858;2023-06-10T13:11:43;6.50;;;3.10;;
47155;SDS011;32908;52.344;16.858;2023-06-10T13:14:11;8.10;;;3.40;;
47155;SDS011;32908;52.344;16.858;2023-06-10T13:16:39;5.80;;;3.70;;
47155;SDS011;32908;52.344;16.858;2023-06-10T13:19:07;7.00;;;3.50;;
47155;SDS011;32908;52.344;16.858;2023-06-10T13:21:34;9.10;;;3.60;;
47155;SDS011;32908;52.344;16.858;2023-06-10T13:24:03;5.70;;;3.20;;
47155;SDS011;32908;52.344;16.858;2023-06-10T13:26:31;6.90;;;2.90;;
47155;SDS011;32908;52.344;16.858;2023-06-10T13:28:59;5.80;;;3.00;;
47155;SDS011;32908;52.344;16.858;2023-06-10T13:31:27;5.00;;;3.30;;
47155;SDS011;32908;52.344;16.858;2023-06-10T13:33:55;9.90;;;3.60;;
47155;SDS011;32908;52.344;16.858;2023-06-10T13:36:23;5.80;;;2.80;;
47155;SDS011;32908;52.344;16.858;2023-06-10T13:38:51;4.50;;;2.90;;
47155;SDS011;32908;52.344;16.858;2023-06-10T13:41:19;4.70;;;2.70;;
47155;SDS011;32908;52.344;16.858;2023-06-10T13:43:47;8.50;;;3.10;;
47155;SDS011;32908;52.344;16.858;2023-06-10T13:46:15;4.00;;;2.90;;
47155;SDS011;32908;52.344;16.858;2023-06-10T13:48:43;7.00;;;3.30;;
47155;SDS011;32908;52.344;16.858;2023-06-10T13:51:11;6.30;;;3.00;;
47155;SDS011;32908;52.344;16.858;2023-06-10T13:53:38;7.00;;;2.90;;
47155;SDS011;32908;52.344;16.858;2023-06-10T13:56:06;4.70;;;3.30;;
47155;SDS011;32908;52.344;16.858;2023-06-10T13:58:34;7.20;;;2.80;;
47155;SDS011;32908;52.344;16.858;2023-06-10T14:01:05;6.60;;;3.40;;
47155;SDS011;32908;52.344;16.858;2023-06-10T14:03:33;4.00;;;3.30;;
47155;SDS011;32908;52.344;16.858;2023-06-10T14:06:01;4.80;;;2.70;;
47155;SDS011;32908;52.344;16.858;2023-06-10T14:08:29;4.30;;;3.20;;
47155;SDS011;32908;52.344;16.858;2023-06-10T14:10:57;5.80;;;2.60;;
47155;SDS011;32908;52.344;16.858;2023-06-10T14:13:25;6.70;;;3.00;;
47155;SDS011;32908;52.344;16.858;2023-06-10T14:15:53;6.40;;;2.80;;
47155;SDS011;32908;52.344;16.858;2023-06-10T14:18:21;9.30;;;3.00;;
47155;SDS011;32908;52.344;16.858;2023-06-10T14:20:49;4.60;;;2.60;;
47155;SDS011;32908;52.344;16.858;2023-06-10T14:23:16;6.20;;;2.80;;
47155;SDS011;32908;52.344;16.858;2023-06-10T14:25:44;9.20;;;3.30;;
47155;SDS011;32908;52.344;16.858;2023-06-10T14:28:12;5.50;;;3.30;;
47155;SDS011;32908;52.344;16.858;2023-06-10T14:30:40;4.30;;;3.20;;
47155;SDS011;32908;52.344;16.858;2023-06-10T14:33:08;5.90;;;3.00;;
47155;SDS011;32908;52.344;16.858;2023-06-10T14:35:36;3.80;;;3.00;;
47155;SDS011;32908;52.344;16.858;2023-06-10T14:38:04;3.40;;;3.10;;
47155;SDS011;32908;52.344;16.858;2023-06-10T14:40:32;7.40;;;2.90;;
47155;SDS011;32908;52.344;16.858;2023-06-10T14:43:00;4.70;;;3.10;;
47155;SDS011;32908;52.344;16.858;2023-06-10T14:45:30;4.60;;;3.10;;
47155;SDS011;32908;52.344;16.858;2023-06-10T14:47:58;4.80;;;2.70;;